Time;durP1;ratioP1;P1;durP2;ratioP2;P2;SDS_P1;SDS_P2;PMS_P1;PMS_P2;Temp;Humidity;BMP_temperature;BMP_pressure;BME280_temperature;BME280_humidity;BME280_pressure;Samples;Min_cycle;Max_cycle;Signal;HPM_P1;HPM_P2
2022/04/16 00:00:28;;;;;;;1999.90;999.90;;;;;;;;;;5033056;28;20196;-68
2022/04/16 00:03:14;;;;;;;1999.90;999.90;;;;;;;;;;5032321;28;20406;-68
2022/04/16 00:05:59;;;;;;;1999.90;999.90;;;;;;;;;;5032867;28;20268;-68
2022/04/16 00:08:44;;;;;;;1999.90;999.90;;;;;;;;;;5032215;28;20205;-69
2022/04/16 00:11:29;;;;;;;1999.90;999.90;;;;;;;;;;5032413;28;20723;-68
2022/04/16 00:14:15;;;;;;;1999.90;999.90;;;;;;;;;;5013048;28;20206;-67
2022/04/16 00:17:00;;;;;;;1999.90;999.90;;;;;;;;;;5013040;28;20234;-69
2022/04/16 00:19:46;;;;;;;1999.90;999.90;;;;;;;;;;5027302;28;20572;-67
2022/04/16 00:22:31;;;;;;;1999.90;999.90;;;;;;;;;;5032431;28;20695;-68
2022/04/16 00:25:16;;;;;;;1999.90;999.90;;;;;;;;;;5032587;28;20579;-68
2022/04/16 00:28:01;;;;;;;1999.90;999.90;;;;;;;;;;5028902;28;20234;-69
2022/04/16 00:30:46;;;;;;;1999.90;999.90;;;;;;;;;;5032501;28;20458;-68
2022/04/16 00:33:33;;;;;;;1999.90;999.90;;;;;;;;;;5031984;28;20406;-68
2022/04/16 00:36:20;;;;;;;1999.90;999.90;;;;;;;;;;5012583;28;20238;-68
2022/04/16 00:39:05;;;;;;;1999.90;999.90;;;;;;;;;;5020849;28;20256;-69
2022/04/16 00:41:51;;;;;;;1999.90;999.90;;;;;;;;;;5032634;28;20209;-68
2022/04/16 00:44:36;;;;;;;1999.90;999.90;;;;;;;;;;5032109;28;20418;-68
2022/04/16 00:47:21;;;;;;;1999.90;999.90;;;;;;;;;;5031827;28;20823;-69
2022/04/16 00:50:08;;;;;;;1999.90;999.90;;;;;;;;;;5032044;28;20221;-68
2022/04/16 00:52:55;;;;;;;1999.90;999.90;;;;;;;;;;5031854;28;20224;-68
2022/04/16 00:55:39;;;;;;;1999.90;999.90;;;;;;;;;;5031570;28;20260;-67
2022/04/16 00:58:24;;;;;;;1999.90;999.90;;;;;;;;;;5031792;28;20248;-68
2022/04/16 01:01:10;;;;;;;1999.90;999.90;;;;;;;;;;5032065;28;20275;-69
2022/04/16 01:03:55;;;;;;;1999.90;999.90;;;;;;;;;;5032237;28;20303;-68
2022/04/16 01:06:42;;;;;;;1999.90;999.90;;;;;;;;;;5032024;28;20714;-69
2022/04/16 01:09:29;;;;;;;1999.90;999.90;;;;;;;;;;5039431;28;20212;-69
2022/04/16 01:12:16;;;;;;;1999.90;999.90;;;;;;;;;;5051731;28;20311;-68
2022/04/16 01:15:02;;;;;;;1999.90;999.90;;;;;;;;;;5051969;28;20211;-69
2022/04/16 01:17:47;;;;;;;1999.90;999.90;;;;;;;;;;5048422;28;20438;-68
2022/04/16 01:20:33;;;;;;;1999.90;999.90;;;;;;;;;;5012184;28;20304;-68
2022/04/16 01:23:19;;;;;;;1999.90;999.90;;;;;;;;;;5031401;28;20205;-68
2022/04/16 01:26:04;;;;;;;1999.90;999.90;;;;;;;;;;5051057;28;20718;-68
2022/04/16 01:28:49;;;;;;;1999.90;999.90;;;;;;;;;;5050509;28;20709;-68
2022/04/16 01:31:35;;;;;;;1999.90;999.90;;;;;;;;;;5051430;28;20236;-68
2022/04/16 01:34:20;;;;;;;1999.90;999.90;;;;;;;;;;5051356;28;20594;-68
2022/04/16 01:37:05;;;;;;;1999.90;999.90;;;;;;;;;;5044682;28;20228;-68
2022/04/16 01:39:51;;;;;;;1999.90;999.90;;;;;;;;;;5031351;28;20209;-68
2022/04/16 01:42:36;;;;;;;1999.90;999.90;;;;;;;;;;5032620;28;20587;-68
2022/04/16 01:45:21;;;;;;;1999.90;999.90;;;;;;;;;;5011920;28;20215;-69
2022/04/16 01:48:06;;;;;;;1999.90;999.90;;;;;;;;;;5011563;28;20252;-68
2022/04/16 01:50:51;;;;;;;1999.90;999.90;;;;;;;;;;5021498;28;20707;-69
2022/04/16 01:53:36;;;;;;;1999.90;999.90;;;;;;;;;;5051678;28;20212;-68
2022/04/16 01:56:22;;;;;;;1999.90;999.90;;;;;;;;;;5051371;28;20232;-69
2022/04/16 01:59:08;;;;;;;1999.90;999.90;;;;;;;;;;5051160;28;20592;-69
2022/04/16 02:01:55;;;;;;;1999.90;999.90;;;;;;;;;;5038979;28;20546;-68
2022/04/16 02:04:40;;;;;;;1999.90;999.90;;;;;;;;;;5046961;28;20576;-68
2022/04/16 02:07:25;;;;;;;1999.90;999.90;;;;;;;;;;5033841;28;20603;-68
2022/04/16 02:10:12;;;;;;;1999.90;999.90;;;;;;;;;;5034517;28;20407;-68
2022/04/16 02:13:00;;;;;;;1999.90;999.90;;;;;;;;;;5045432;28;20228;-68
2022/04/16 02:15:45;;;;;;;1999.90;999.90;;;;;;;;;;5055107;28;20213;-68
2022/04/16 02:18:30;;;;;;;1999.90;999.90;;;;;;;;;;5054680;28;20204;-67
2022/04/16 02:21:16;;;;;;;1999.90;999.90;;;;;;;;;;5054577;28;20206;-69
2022/04/16 02:24:01;;;;;;;1999.90;999.90;;;;;;;;;;5015129;28;20276;-68
2022/04/16 02:26:47;;;;;;;1999.90;999.90;;;;;;;;;;5015222;28;20260;-68
2022/04/16 02:29:34;;;;;;;1999.90;999.90;;;;;;;;;;5014850;28;20213;-68
2022/04/16 02:32:19;;;;;;;1999.90;999.90;;;;;;;;;;5014662;28;20318;-68
2022/04/16 02:35:04;;;;;;;1999.90;999.90;;;;;;;;;;5021589;28;20216;-68
2022/04/16 02:37:49;;;;;;;1999.90;999.90;;;;;;;;;;5034356;28;20232;-67
2022/04/16 02:40:34;;;;;;;1999.90;999.90;;;;;;;;;;5034477;28;20703;-68
2022/04/16 02:43:19;;;;;;;1999.90;999.90;;;;;;;;;;5048384;28;20516;-68
2022/04/16 02:49:08;;;;;;;1999.90;999.90;;;;;;;;;;5038650;28;20227;-68
2022/04/16 02:51:53;;;;;;;1999.90;999.90;;;;;;;;;;5039208;28;20310;-68
2022/04/16 02:54:38;;;;;;;1999.90;999.90;;;;;;;;;;5053068;28;20398;-68
2022/04/16 02:57:23;;;;;;;1999.90;999.90;;;;;;;;;;5042327;28;20597;-68
2022/04/16 03:00:09;;;;;;;1999.90;999.90;;;;;;;;;;5034224;28;20343;-68
2022/04/16 03:02:56;;;;;;;1999.90;999.90;;;;;;;;;;5050986;28;20689;-68
2022/04/16 03:05:41;;;;;;;1999.90;999.90;;;;;;;;;;5054189;28;20307;-68
2022/04/16 03:08:25;;;;;;;1999.90;999.90;;;;;;;;;;5053737;28;20211;-68
2022/04/16 03:11:10;;;;;;;1999.90;999.90;;;;;;;;;;5049715;28;20227;-68
2022/04/16 03:13:55;;;;;;;1999.90;999.90;;;;;;;;;;5051190;28;20272;-68
2022/04/16 03:19:45;;;;;;;1999.90;999.90;;;;;;;;;;5033060;28;20202;-68
2022/04/16 03:22:30;;;;;;;1999.90;999.90;;;;;;;;;;5050350;28;20207;-69
2022/04/16 03:25:15;;;;;;;1999.90;999.90;;;;;;;;;;5036952;28;20433;-68
2022/04/16 03:28:00;;;;;;;1999.90;999.90;;;;;;;;;;5044558;28;21027;-69
2022/04/16 03:30:45;;;;;;;1999.90;999.90;;;;;;;;;;5033570;28;20236;-68
2022/04/16 03:33:31;;;;;;;1999.90;999.90;;;;;;;;;;5018817;28;20211;-66
2022/04/16 03:36:18;;;;;;;1999.90;999.90;;;;;;;;;;5013348;28;20424;-69
2022/04/16 03:39:03;;;;;;;1999.90;999.90;;;;;;;;;;5017251;28;20223;-69
2022/04/16 03:41:48;;;;;;;1999.90;999.90;;;;;;;;;;5039971;28;20278;-68
2022/04/16 03:44:33;;;;;;;1999.90;999.90;;;;;;;;;;5039612;28;20246;-68
2022/04/16 03:47:18;;;;;;;1999.90;999.90;;;;;;;;;;5048279;28;20229;-68
2022/04/16 03:50:03;;;;;;;1999.90;999.90;;;;;;;;;;5050208;28;20222;-68
2022/04/16 03:52:50;;;;;;;1999.90;999.90;;;;;;;;;;5050552;28;20340;-68
2022/04/16 04:01:40;;;;;;;1999.90;999.90;;;;;;;;;;5052994;28;20277;-68
2022/04/16 04:04:25;;;;;;;1999.90;999.90;;;;;;;;;;5040316;28;20268;-68
2022/04/16 04:07:11;;;;;;;1999.90;999.90;;;;;;;;;;5012798;28;20403;-68
2022/04/16 04:09:57;;;;;;;1999.90;999.90;;;;;;;;;;5024225;28;20226;-68
2022/04/16 04:12:42;;;;;;;1999.90;999.90;;;;;;;;;;5032548;28;20347;-68
2022/04/16 04:15:27;;;;;;;1999.90;999.90;;;;;;;;;;5032992;28;20260;-68
2022/04/16 04:18:12;;;;;;;1999.90;999.90;;;;;;;;;;5019032;28;21023;-68
2022/04/16 04:20:57;;;;;;;1999.90;999.90;;;;;;;;;;5012546;28;20246;-68
2022/04/16 04:23:42;;;;;;;1999.90;999.90;;;;;;;;;;5013134;28;20206;-69
2022/04/16 04:26:29;;;;;;;1999.90;999.90;;;;;;;;;;5013140;28;20590;-69
2022/04/16 04:29:14;;;;;;;1999.90;999.90;;;;;;;;;;5012118;28;20226;-68
2022/04/16 04:31:58;;;;;;;1999.90;999.90;;;;;;;;;;5012653;28;20594;-68
2022/04/16 04:34:43;;;;;;;1999.90;999.90;;;;;;;;;;5012864;28;20214;-68
2022/04/16 04:37:28;;;;;;;1999.90;999.90;;;;;;;;;;5012644;28;20312;-68
2022/04/16 04:40:13;;;;;;;1999.90;999.90;;;;;;;;;;5012457;28;20210;-67
2022/04/16 04:43:00;;;;;;;1999.90;999.90;;;;;;;;;;5019406;28;20198;-68
2022/04/16 04:45:46;;;;;;;1999.90;999.90;;;;;;;;;;5046143;28;20283;-68
2022/04/16 04:48:31;;;;;;;1999.90;999.90;;;;;;;;;;5028870;28;21006;-69
2022/04/16 04:51:16;;;;;;;1999.90;999.90;;;;;;;;;;5030481;28;20345;-67
2022/04/16 04:54:01;;;;;;;1999.90;999.90;;;;;;;;;;5030523;28;20346;-69
2022/04/16 04:56:46;;;;;;;1999.90;999.90;;;;;;;;;;5030088;28;20727;-68
2022/04/16 04:59:32;;;;;;;1999.90;999.90;;;;;;;;;;5039051;28;20418;-68
2022/04/16 05:02:17;;;;;;;1999.90;999.90;;;;;;;;;;5052104;28;20204;-68
2022/04/16 05:05:02;;;;;;;1999.90;999.90;;;;;;;;;;5031755;28;20217;-68
2022/04/16 05:07:47;;;;;;;1999.90;999.90;;;;;;;;;;5031966;28;20229;-68
2022/04/16 05:10:32;;;;;;;1999.90;999.90;;;;;;;;;;5032111;28;20561;-68
2022/04/16 05:13:17;;;;;;;1999.90;999.90;;;;;;;;;;5032141;28;20197;-68
2022/04/16 05:16:03;;;;;;;1999.90;999.90;;;;;;;;;;5041957;28;20305;-68
2022/04/16 05:18:48;;;;;;;1999.90;999.90;;;;;;;;;;5051469;28;20332;-69
2022/04/16 05:21:32;;;;;;;1999.90;999.90;;;;;;;;;;5051760;28;20325;-69
2022/04/16 05:24:17;;;;;;;1999.90;999.90;;;;;;;;;;5051748;28;20279;-68
2022/04/16 05:27:02;;;;;;;1999.90;999.90;;;;;;;;;;5051626;28;20232;-68
2022/04/16 05:29:56;;;;;;;1999.90;999.90;;;;;;;;;;5051436;28;20712;-69
2022/04/16 05:32:45;;;;;;;1999.90;999.90;;;;;;;;;;5051408;28;20307;-69
2022/04/16 05:35:30;;;;;;;1999.90;999.90;;;;;;;;;;5051674;28;20229;-66
2022/04/16 05:38:15;;;;;;;1999.90;999.90;;;;;;;;;;5051527;28;20589;-66
2022/04/16 05:40:59;;;;;;;1999.90;999.90;;;;;;;;;;5052107;28;20207;-69
2022/04/16 05:43:44;;;;;;;1999.90;999.90;;;;;;;;;;5054926;28;20408;-68
2022/04/16 05:46:29;;;;;;;1999.90;999.90;;;;;;;;;;5038508;28;20235;-68
2022/04/16 05:49:16;;;;;;;1999.90;999.90;;;;;;;;;;5055209;28;20203;-69
2022/04/16 05:52:01;;;;;;;1999.90;999.90;;;;;;;;;;5038907;28;20228;-68
2022/04/16 05:54:46;;;;;;;1999.90;999.90;;;;;;;;;;5035162;28;20209;-68
2022/04/16 05:57:31;;;;;;;1999.90;999.90;;;;;;;;;;5035487;28;20224;-68
2022/04/16 06:00:16;;;;;;;1999.90;999.90;;;;;;;;;;5035093;28;20235;-68
2022/04/16 06:03:02;;;;;;;1999.90;999.90;;;;;;;;;;5041563;28;20242;-68
2022/04/16 06:05:48;;;;;;;1999.90;999.90;;;;;;;;;;5054910;28;20199;-68
2022/04/16 06:08:33;;;;;;;1999.90;999.90;;;;;;;;;;5047236;28;20217;-68
2022/04/16 06:11:20;;;;;;;1999.90;999.90;;;;;;;;;;5034846;28;20698;-68
2022/04/16 06:14:05;;;;;;;1999.90;999.90;;;;;;;;;;5032954;28;20422;-68
2022/04/16 06:16:49;;;;;;;1999.90;999.90;;;;;;;;;;5034816;28;20312;-68
2022/04/16 06:19:34;;;;;;;1999.90;999.90;;;;;;;;;;5034758;28;20208;-68
2022/04/16 06:22:21;;;;;;;1999.90;999.90;;;;;;;;;;5035168;28;20321;-68
2022/04/16 06:25:08;;;;;;;1999.90;999.90;;;;;;;;;;5034470;28;20414;-69
2022/04/16 06:27:53;;;;;;;1999.90;999.90;;;;;;;;;;5039524;28;20232;-68
2022/04/16 06:30:38;;;;;;;1999.90;999.90;;;;;;;;;;5054687;28;20197;-68
2022/04/16 06:33:23;;;;;;;1999.90;999.90;;;;;;;;;;5048579;28;20222;-68
2022/04/16 06:36:08;;;;;;;1999.90;999.90;;;;;;;;;;5031663;28;20200;-69
2022/04/16 06:38:54;;;;;;;1999.90;999.90;;;;;;;;;;5028152;28;20220;-68
2022/04/16 06:41:39;;;;;;;1999.90;999.90;;;;;;;;;;5051753;28;20201;-68
2022/04/16 06:44:24;;;;;;;1999.90;999.90;;;;;;;;;;5045794;28;20206;-69
2022/04/16 06:47:09;;;;;;;1999.90;999.90;;;;;;;;;;5051653;28;20233;-69
2022/04/16 06:49:54;;;;;;;1999.90;999.90;;;;;;;;;;5051776;28;20583;-69
2022/04/16 06:52:39;;;;;;;1999.90;999.90;;;;;;;;;;5050565;28;20241;-68
2022/04/16 06:55:25;;;;;;;1999.90;999.90;;;;;;;;;;5027479;28;20268;-69
2022/04/16 06:58:10;;;;;;;1999.90;999.90;;;;;;;;;;5051542;28;20233;-70
2022/04/16 07:00:55;;;;;;;1999.90;999.90;;;;;;;;;;5051807;28;20208;-69
2022/04/16 07:03:39;;;;;;;1999.90;999.90;;;;;;;;;;5051389;28;20796;-68
2022/04/16 07:06:24;;;;;;;1999.90;999.90;;;;;;;;;;5023021;28;20228;-69
2022/04/16 07:09:10;;;;;;;1999.90;999.90;;;;;;;;;;5017700;28;20304;-68
2022/04/16 07:11:56;;;;;;;1999.90;999.90;;;;;;;;;;5013173;28;20582;-69
2022/04/16 07:14:41;;;;;;;1999.90;999.90;;;;;;;;;;5048604;28;20554;-68
2022/04/16 07:17:27;;;;;;;1999.90;999.90;;;;;;;;;;5046070;28;20236;-69
2022/04/16 07:20:12;;;;;;;1999.90;999.90;;;;;;;;;;5047923;28;20220;-68
2022/04/16 07:22:57;;;;;;;1999.90;999.90;;;;;;;;;;5050943;28;20629;-69
2022/04/16 07:25:42;;;;;;;1999.90;999.90;;;;;;;;;;5051536;28;20575;-68
2022/04/16 07:28:28;;;;;;;1999.90;999.90;;;;;;;;;;5035393;28;20260;-68
2022/04/16 07:31:13;;;;;;;1999.90;999.90;;;;;;;;;;5026548;28;20216;-70
2022/04/16 07:33:58;;;;;;;1999.90;999.90;;;;;;;;;;5034531;28;20251;-67
2022/04/16 07:36:44;;;;;;;1999.90;999.90;;;;;;;;;;5029267;28;20592;-69
2022/04/16 07:39:29;;;;;;;1999.90;999.90;;;;;;;;;;5030102;28;20231;-70
2022/04/16 07:42:14;;;;;;;1999.90;999.90;;;;;;;;;;5030093;28;20423;-69
2022/04/16 07:45:00;;;;;;;1999.90;999.90;;;;;;;;;;5026035;28;20236;-67
2022/04/16 07:47:45;;;;;;;1999.90;999.90;;;;;;;;;;5024251;28;20226;-68
2022/04/16 07:50:30;;;;;;;1999.90;999.90;;;;;;;;;;5031672;28;20928;-68
2022/04/16 07:53:15;;;;;;;1999.90;999.90;;;;;;;;;;5029576;28;20217;-69
2022/04/16 07:55:59;;;;;;;1999.90;999.90;;;;;;;;;;5026628;28;20200;-69
2022/04/16 07:58:44;;;;;;;1999.90;999.90;;;;;;;;;;5029059;28;20344;-68
2022/04/16 08:01:30;;;;;;;1999.90;999.90;;;;;;;;;;5032466;28;20282;-69
2022/04/16 08:04:15;;;;;;;1999.90;999.90;;;;;;;;;;5028944;28;20228;-67
2022/04/16 08:07:00;;;;;;;1999.90;999.90;;;;;;;;;;5024305;28;20221;-70
2022/04/16 08:09:45;;;;;;;1999.90;999.90;;;;;;;;;;5025715;28;20206;-69
2022/04/16 08:12:31;;;;;;;1999.90;999.90;;;;;;;;;;5031106;28;20728;-69
2022/04/16 08:15:16;;;;;;;1999.90;999.90;;;;;;;;;;5030567;28;20213;-67
2022/04/16 08:18:02;;;;;;;1999.90;999.90;;;;;;;;;;5030026;28;20598;-69
2022/04/16 08:20:47;;;;;;;1999.90;999.90;;;;;;;;;;5030716;28;20345;-68
2022/04/16 08:23:33;;;;;;;1999.90;999.90;;;;;;;;;;5028961;28;20206;-69
2022/04/16 08:26:18;;;;;;;1999.90;999.90;;;;;;;;;;5029358;28;20229;-69
2022/04/16 08:29:03;;;;;;;1999.90;999.90;;;;;;;;;;5030442;28;20205;-70
2022/04/16 08:31:48;;;;;;;1999.90;999.90;;;;;;;;;;5029932;28;20213;-70
2022/04/16 08:34:34;;;;;;;1999.90;999.90;;;;;;;;;;5029828;28;20414;-70
2022/04/16 08:37:19;;;;;;;1999.90;999.90;;;;;;;;;;5029954;28;20229;-69
2022/04/16 08:40:05;;;;;;;1999.90;999.90;;;;;;;;;;5030108;28;20804;-68
2022/04/16 08:42:49;;;;;;;1999.90;999.90;;;;;;;;;;5024022;28;20678;-68
2022/04/16 08:45:36;;;;;;;1999.90;999.90;;;;;;;;;;5033543;28;20220;-69
2022/04/16 08:48:21;;;;;;;1999.90;999.90;;;;;;;;;;5028415;28;20227;-68
2022/04/16 08:51:07;;;;;;;1999.90;999.90;;;;;;;;;;5033085;28;20220;-69
2022/04/16 08:53:53;;;;;;;1999.90;999.90;;;;;;;;;;5032112;28;20387;-69
2022/04/16 08:56:39;;;;;;;1999.90;999.90;;;;;;;;;;5025284;28;20232;-68
2022/04/16 08:59:23;;;;;;;1999.90;999.90;;;;;;;;;;5025169;28;20598;-69
2022/04/16 09:02:09;;;;;;;1999.90;999.90;;;;;;;;;;5034495;28;20710;-69
2022/04/16 09:05:02;;;;;;;1999.90;999.90;;;;;;;;;;5031004;28;20418;-69
2022/04/16 09:07:49;;;;;;;1999.90;999.90;;;;;;;;;;5028794;28;20232;-69
2022/04/16 09:10:36;;;;;;;1999.90;999.90;;;;;;;;;;5030191;28;20213;-68
2022/04/16 09:13:22;;;;;;;1999.90;999.90;;;;;;;;;;5028991;28;20236;-69
2022/04/16 09:16:07;;;;;;;1999.90;999.90;;;;;;;;;;5028392;28;20398;-69
2022/04/16 09:18:53;;;;;;;1999.90;999.90;;;;;;;;;;5029343;28;20213;-68
2022/04/16 09:21:37;;;;;;;1999.90;999.90;;;;;;;;;;5029718;28;20571;-69
2022/04/16 09:24:24;;;;;;;1999.90;999.90;;;;;;;;;;5029693;28;20328;-67
2022/04/16 09:27:09;;;;;;;1999.90;999.90;;;;;;;;;;5026558;28;20356;-68
2022/04/16 09:29:54;;;;;;;1999.90;999.90;;;;;;;;;;5029444;28;20287;-69
2022/04/16 09:32:43;;;;;;;1999.90;999.90;;;;;;;;;;5029211;28;20311;-69
2022/04/16 09:35:29;;;;;;;1999.90;999.90;;;;;;;;;;5029673;28;20252;-68
2022/04/16 09:38:14;;;;;;;1999.90;999.90;;;;;;;;;;5030156;28;20307;-69
2022/04/16 09:41:08;;;;;;;1999.90;999.90;;;;;;;;;;5031576;28;20212;-68
2022/04/16 09:43:53;;;;;;;1999.90;999.90;;;;;;;;;;5039085;28;20783;-69
2022/04/16 09:46:38;;;;;;;1999.90;999.90;;;;;;;;;;5013285;28;20240;-67
2022/04/16 09:49:24;;;;;;;1999.90;999.90;;;;;;;;;;5030074;28;20217;-70
2022/04/16 09:52:11;;;;;;;1999.90;999.90;;;;;;;;;;5031286;28;20235;-69
2022/04/16 09:54:57;;;;;;;1999.90;999.90;;;;;;;;;;5031537;28;20327;-68
2022/04/16 09:57:44;;;;;;;1999.90;999.90;;;;;;;;;;5029968;28;20410;-69
2022/04/16 10:00:29;;;;;;;1999.90;999.90;;;;;;;;;;5022016;28;20751;-68
2022/04/16 10:03:14;;;;;;;1999.90;999.90;;;;;;;;;;5011653;28;20321;-68
2022/04/16 10:06:00;;;;;;;1999.90;999.90;;;;;;;;;;5011683;28;20218;-69
2022/04/16 10:08:45;;;;;;;1999.90;999.90;;;;;;;;;;5011549;28;20588;-70
2022/04/16 10:12:59;;;;;;;1999.90;999.90;;;;;;;;;;5011476;28;20699;-69
2022/04/16 10:14:55;;;;;;;1999.90;999.90;;;;;;;;;;5014886;28;20338;-69
2022/04/16 10:17:47;;;;;;;1999.90;999.90;;;;;;;;;;5030103;28;20241;-70
2022/04/16 10:20:32;;;;;;;1999.90;999.90;;;;;;;;;;5030654;28;20202;-68
2022/04/16 10:23:25;;;;;;;1999.90;999.90;;;;;;;;;;5018143;28;20692;-70
2022/04/16 10:26:11;;;;;;;1999.90;999.90;;;;;;;;;;5014790;28;20204;-69
2022/04/16 10:28:59;;;;;;;1999.90;999.90;;;;;;;;;;5030742;28;20730;-68
2022/04/16 10:31:50;;;;;;;1999.90;999.90;;;;;;;;;;5026512;28;20614;-68
2022/04/16 10:34:35;;;;;;;1999.90;999.90;;;;;;;;;;5014634;28;20643;-69
2022/04/16 10:37:23;;;;;;;1999.90;999.90;;;;;;;;;;5028539;28;20237;-68
2022/04/16 10:40:17;;;;;;;1999.90;999.90;;;;;;;;;;5034316;28;20220;-69
2022/04/16 10:43:02;;;;;;;1999.90;999.90;;;;;;;;;;5034630;28;20211;-70
2022/04/16 10:45:56;;;;;;;1999.90;999.90;;;;;;;;;;5034250;28;20209;-69
2022/04/16 10:48:43;;;;;;;1999.90;999.90;;;;;;;;;;5034050;28;20224;-69
2022/04/16 10:51:34;;;;;;;1999.90;999.90;;;;;;;;;;5034456;28;20751;-69
2022/04/16 10:54:27;;;;;;;1999.90;999.90;;;;;;;;;;5034034;28;20610;-70
2022/04/16 10:57:20;;;;;;;1999.90;999.90;;;;;;;;;;5034279;28;20733;-68
2022/04/16 11:00:13;;;;;;;1999.90;999.90;;;;;;;;;;5033925;28;20209;-68
2022/04/16 11:03:06;;;;;;;1999.90;999.90;;;;;;;;;;5034471;28;20576;-68
2022/04/16 11:06:00;;;;;;;1999.90;999.90;;;;;;;;;;5033523;28;20618;-70
2022/04/16 11:08:46;;;;;;;1999.90;999.90;;;;;;;;;;5033640;28;20213;-69
2022/04/16 11:11:31;;;;;;;1999.90;999.90;;;;;;;;;;5033984;28;20695;-69
2022/04/16 11:14:16;;;;;;;1999.90;999.90;;;;;;;;;;5032827;28;20356;-70
2022/04/16 11:17:03;;;;;;;1999.90;999.90;;;;;;;;;;5033251;28;20430;-69
2022/04/16 11:19:49;;;;;;;1999.90;999.90;;;;;;;;;;5032970;28;20205;-68
2022/04/16 11:22:35;;;;;;;1999.90;999.90;;;;;;;;;;5033860;28;20716;-68
2022/04/16 11:25:22;;;;;;;1999.90;999.90;;;;;;;;;;5033713;28;20344;-70
2022/04/16 11:34:20;;;;;;;1999.90;999.90;;;;;;;;;;5033221;28;20279;-70
2022/04/16 11:37:05;;;;;;;1999.90;999.90;;;;;;;;;;5032646;28;20232;-69
2022/04/16 11:40:00;;;;;;;1999.90;999.90;;;;;;;;;;5013618;28;20421;-67
2022/04/16 11:42:45;;;;;;;1999.90;999.90;;;;;;;;;;5022973;28;20210;-70
2022/04/16 11:45:32;;;;;;;1999.90;999.90;;;;;;;;;;5033525;28;20283;-68
2022/04/16 11:48:17;;;;;;;1999.90;999.90;;;;;;;;;;5031887;28;20794;-69
2022/04/16 11:51:01;;;;;;;1999.90;999.90;;;;;;;;;;5032921;28;20210;-69
2022/04/16 11:53:48;;;;;;;1999.90;999.90;;;;;;;;;;5032836;28;20233;-68
2022/04/16 11:56:36;;;;;;;1999.90;999.90;;;;;;;;;;5033014;28;20229;-68
2022/04/16 11:59:23;;;;;;;1999.90;999.90;;;;;;;;;;5032098;28;20769;-69
2022/04/16 12:02:08;;;;;;;1999.90;999.90;;;;;;;;;;5033209;28;20680;-69
2022/04/16 12:04:53;;;;;;;1999.90;999.90;;;;;;;;;;5033102;28;20221;-67
2022/04/16 12:07:40;;;;;;;1999.90;999.90;;;;;;;;;;5032293;28;20246;-69
2022/04/16 12:10:25;;;;;;;1999.90;999.90;;;;;;;;;;5033075;28;20261;-69
2022/04/16 12:13:12;;;;;;;1999.90;999.90;;;;;;;;;;5032796;28;20716;-68
2022/04/16 12:16:03;;;;;;;1999.90;999.90;;;;;;;;;;5032487;28;20691;-69
2022/04/16 12:18:49;;;;;;;1999.90;999.90;;;;;;;;;;5032256;28;20691;-69
2022/04/16 12:21:40;;;;;;;1999.90;999.90;;;;;;;;;;5032522;28;20213;-69
2022/04/16 12:24:28;;;;;;;1999.90;999.90;;;;;;;;;;5027491;28;20201;-70
2022/04/16 12:27:24;;;;;;;1999.90;999.90;;;;;;;;;;5032234;28;20234;-68
2022/04/16 12:30:14;;;;;;;1999.90;999.90;;;;;;;;;;5026690;28;20225;-69
2022/04/16 12:32:59;;;;;;;1999.90;999.90;;;;;;;;;;5020201;28;20265;-69
2022/04/16 12:35:45;;;;;;;1999.90;999.90;;;;;;;;;;5031846;28;20202;-68
2022/04/16 12:38:31;;;;;;;1999.90;999.90;;;;;;;;;;5031637;28;20291;-69
2022/04/16 12:41:20;;;;;;;1999.90;999.90;;;;;;;;;;5031471;28;20406;-67
2022/04/16 12:44:05;;;;;;;1999.90;999.90;;;;;;;;;;5029107;28;20673;-69
2022/04/16 12:46:51;;;;;;;1999.90;999.90;;;;;;;;;;5028473;28;20217;-68
2022/04/16 12:49:36;;;;;;;1999.90;999.90;;;;;;;;;;5031495;28;20209;-70
2022/04/16 12:52:23;;;;;;;1999.90;999.90;;;;;;;;;;5012779;28;20216;-69
2022/04/16 12:55:09;;;;;;;1999.90;999.90;;;;;;;;;;5020117;28;20237;-69
2022/04/16 12:57:53;;;;;;;1999.90;999.90;;;;;;;;;;5031517;28;20253;-66
2022/04/16 13:00:39;;;;;;;1999.90;999.90;;;;;;;;;;5032052;28;20341;-69
2022/04/16 13:03:27;;;;;;;1999.90;999.90;;;;;;;;;;5030888;28;20337;-69
2022/04/16 13:06:12;;;;;;;1999.90;999.90;;;;;;;;;;5031287;28;20221;-69
2022/04/16 13:09:00;;;;;;;1999.90;999.90;;;;;;;;;;5022155;28;20688;-69
2022/04/16 13:11:46;;;;;;;1999.90;999.90;;;;;;;;;;5031866;28;20222;-68
2022/04/16 13:14:30;;;;;;;1999.90;999.90;;;;;;;;;;5031476;28;20221;-69
2022/04/16 13:17:15;;;;;;;1999.90;999.90;;;;;;;;;;5031758;28;20233;-67
2022/04/16 13:20:02;;;;;;;1999.90;999.90;;;;;;;;;;5031659;28;20202;-68
2022/04/16 13:22:47;;;;;;;1999.90;999.90;;;;;;;;;;5030635;28;20402;-69
2022/04/16 13:25:33;;;;;;;1999.90;999.90;;;;;;;;;;5032051;28;20206;-69
2022/04/16 13:28:18;;;;;;;1999.90;999.90;;;;;;;;;;5031878;28;20215;-69
2022/04/16 13:31:03;;;;;;;1999.90;999.90;;;;;;;;;;5031712;28;20206;-68
2022/04/16 13:33:48;;;;;;;1999.90;999.90;;;;;;;;;;5031485;28;20241;-69
2022/04/16 13:36:34;;;;;;;1999.90;999.90;;;;;;;;;;5031612;28;20225;-70
2022/04/16 13:42:22;;;;;;;1999.90;999.90;;;;;;;;;;5031804;28;20630;-69
2022/04/16 13:45:08;;;;;;;1999.90;999.90;;;;;;;;;;5031417;28;20284;-68
2022/04/16 13:47:52;;;;;;;1999.90;999.90;;;;;;;;;;5030741;28;20233;-69
2022/04/16 13:50:37;;;;;;;1999.90;999.90;;;;;;;;;;5031424;28;20410;-69
2022/04/16 13:53:24;;;;;;;1999.90;999.90;;;;;;;;;;5031551;28;20202;-69
2022/04/16 13:56:09;;;;;;;1999.90;999.90;;;;;;;;;;5031432;28;20209;-68
2022/04/16 13:58:54;;;;;;;1999.90;999.90;;;;;;;;;;5031411;28;20202;-68
2022/04/16 14:01:39;;;;;;;1999.90;999.90;;;;;;;;;;5031594;28;20700;-69
2022/04/16 14:04:24;;;;;;;1999.90;999.90;;;;;;;;;;5033619;28;20589;-67
2022/04/16 14:07:09;;;;;;;1999.90;999.90;;;;;;;;;;5017585;28;20229;-69
2022/04/16 14:09:55;;;;;;;1999.90;999.90;;;;;;;;;;5021492;28;20214;-70
2022/04/16 14:12:41;;;;;;;1999.90;999.90;;;;;;;;;;5035209;28;20333;-69
2022/04/16 14:15:25;;;;;;;1999.90;999.90;;;;;;;;;;5034781;28;20230;-66
2022/04/16 14:18:10;;;;;;;1999.90;999.90;;;;;;;;;;5034628;28;20679;-68
2022/04/16 14:20:55;;;;;;;1999.90;999.90;;;;;;;;;;5034957;28;20697;-68
2022/04/16 14:23:41;;;;;;;1999.90;999.90;;;;;;;;;;5024557;28;20213;-68
2022/04/16 14:26:27;;;;;;;1999.90;999.90;;;;;;;;;;5034806;28;20226;-68
2022/04/16 14:29:14;;;;;;;1999.90;999.90;;;;;;;;;;5034401;28;20718;-68
2022/04/16 14:32:00;;;;;;;1999.90;999.90;;;;;;;;;;5034939;28;20202;-68
2022/04/16 14:34:44;;;;;;;1999.90;999.90;;;;;;;;;;5034519;28;20597;-69
2022/04/16 14:37:29;;;;;;;1999.90;999.90;;;;;;;;;;5034479;28;20349;-68
2022/04/16 14:40:14;;;;;;;1999.90;999.90;;;;;;;;;;5034660;28;20308;-68
2022/04/16 14:43:01;;;;;;;1999.90;999.90;;;;;;;;;;5034612;28;20283;-68
2022/04/16 14:45:46;;;;;;;1999.90;999.90;;;;;;;;;;5033174;28;20398;-68
2022/04/16 14:48:31;;;;;;;1999.90;999.90;;;;;;;;;;5034099;28;20685;-68
2022/04/16 14:51:16;;;;;;;1999.90;999.90;;;;;;;;;;5034472;28;20209;-69
2022/04/16 14:54:00;;;;;;;1999.90;999.90;;;;;;;;;;5034116;28;20222;-69
2022/04/16 14:56:45;;;;;;;1999.90;999.90;;;;;;;;;;5033865;28;20340;-70
2022/04/16 14:59:32;;;;;;;1999.90;999.90;;;;;;;;;;5024124;28;20320;-69
2022/04/16 15:02:17;;;;;;;1999.90;999.90;;;;;;;;;;5033904;28;20218;-68
2022/04/16 15:05:01;;;;;;;1999.90;999.90;;;;;;;;;;5014272;28;20627;-67
2022/04/16 15:07:46;;;;;;;1999.90;999.90;;;;;;;;;;5014552;28;20226;-68
2022/04/16 15:10:31;;;;;;;1999.90;999.90;;;;;;;;;;5014236;28;20211;-68
2022/04/16 15:13:16;;;;;;;1999.90;999.90;;;;;;;;;;5013781;28;20202;-67
2022/04/16 15:16:02;;;;;;;1999.90;999.90;;;;;;;;;;5025916;28;20233;-68
2022/04/16 15:18:47;;;;;;;1999.90;999.90;;;;;;;;;;5034422;28;20574;-68
2022/04/16 15:21:33;;;;;;;1999.90;999.90;;;;;;;;;;5034053;28;20213;-68
2022/04/16 15:24:18;;;;;;;1999.90;999.90;;;;;;;;;;5033577;28;20285;-68
2022/04/16 15:27:03;;;;;;;1999.90;999.90;;;;;;;;;;5031447;28;20418;-68
2022/04/16 15:29:49;;;;;;;1999.90;999.90;;;;;;;;;;5029569;28;20206;-67
2022/04/16 15:32:35;;;;;;;1999.90;999.90;;;;;;;;;;5032909;28;20277;-68
2022/04/16 15:35:23;;;;;;;1999.90;999.90;;;;;;;;;;5033419;28;20225;-69
2022/04/16 15:38:08;;;;;;;1999.90;999.90;;;;;;;;;;5013936;28;20277;-68
2022/04/16 15:40:57;;;;;;;1999.90;999.90;;;;;;;;;;5031700;28;20294;-68
2022/04/16 15:43:42;;;;;;;1999.90;999.90;;;;;;;;;;5033359;28;20720;-69
2022/04/16 15:46:27;;;;;;;1999.90;999.90;;;;;;;;;;5033402;28;20277;-69